METAR AND TAF INFORMATION
METAR FOR ZBAA
ADDS - METARS form results

(0747 UTC 26 January 2020)
Data provider http://aviationweather.gov/metar/data/
 
METAR text: ZBAA 260730Z VRB01MPS 5000 HZ NSC 04/M08 Q1031 NOSIG
Conditions at: ZBAA (BEIJING/PEKING , CN) observed 0730 UTC 26 January 2020
Temperature: 4.0°C (39°F)
Dewpoint: -8.0°C (18°F) [RH = 41%]
Pressure (altimeter): 30.44 inches Hg (1031.0 mb)
Winds: variable direction winds at 2 MPH (2 knots; 1.0 m/s)
Visibility: 3 miles ( 5 km)
Ceiling: at least 12,000 feet AGL
Clouds: sky clear below 12,000 feet AGL
Weather: HZ  (haze)

METAR text: ZBAA 260700Z VRB01MPS 5000 HZ NSC 04/M08 Q1031 NOSIG
Conditions at: ZBAA (BEIJING/PEKING , CN) observed 0700 UTC 26 January 2020
Temperature: 4.0°C (39°F)
Dewpoint: -8.0°C (18°F) [RH = 41%]
Pressure (altimeter): 30.44 inches Hg (1031.0 mb)
Winds: variable direction winds at 2 MPH (2 knots; 1.0 m/s)
Visibility: 3 miles ( 5 km)
Ceiling: at least 12,000 feet AGL
Clouds: sky clear below 12,000 feet AGL
Weather: HZ  (haze)

Forecast for: ZBAA (BEIJING/PEKING , CN)
Text: TAF ZBAA 260310Z 2606/2706 12004MPS 4000 BR NSC TX05/2607Z TNM09/2621Z
Forecast period: 0600 UTC 26 January 2020 to 0600 UTC 27 January 2020
Forecast type: FROM: standard forecast or significant change
Winds: from the ESE (120 degrees) at 9 MPH (8 knots; 4.1 m/s)
Visibility: 2.49 miles (4.01 km)
Ceiling: unknown
Clouds: missing
Weather: BR  (mist)

 AIRPORT MAP

 RUNWAY INFORMATION

 AIRPORT FREQUENCIES
Type APP Name BEIJING AP Frequency 119.6 MHZ
Type APP Name BEIJING AP Frequency 119.7 MHZ
Type APP Name BEIJING AP Frequency 120.6 MHZ
Type APP Name BEIJING AP Frequency 121.1 MHZ
Type APP Name BEIJING AP Frequency 126.1 MHZ
Type APP Name BEIJING AP Frequency 127.75 MHZ
Type ATIS Name BEIJING AT Frequency 127.6 MHZ
Type CLD Name BEIJING DE Frequency 121.6 MHZ
Type GND Name GND EAST Frequency 121.7 MHZ
Type GND Name BEIJING GN Frequency 121.7 MHZ
Type GND Name GND WEST Frequency 121.9 MHZ
Type TWR Name BEIJING EA Frequency 118.5 MHZ
Type TWR Name BEIJING W Frequency 124.3 MHZ

 AIRPORT NEAR NAVIGATION AIDS
Type VOR-DME Name Beijing Frequency 114700 KHZ
Type VOR-DME Name Shaziying Frequency 117200 KHZ



2018 Air Astana Virtual Airline